createdAt,value
2023-04-24T00:02:51.522Z,11.76
2023-04-24T00:05:24.616Z,11.71
2023-04-24T00:08:03.095Z,11.66
2023-04-24T00:10:40.833Z,11.63
2023-04-24T00:13:33.887Z,11.60
2023-04-24T00:17:03.750Z,11.59
2023-04-24T00:19:43.463Z,11.58
2023-04-24T00:22:48.404Z,11.55
2023-04-24T00:25:54.492Z,11.55
2023-04-24T00:28:58.244Z,11.54
2023-04-24T00:31:42.629Z,11.51
2023-04-24T00:34:51.322Z,11.50
2023-04-24T00:37:56.734Z,11.49
2023-04-24T00:40:34.376Z,11.45
2023-04-24T00:43:10.397Z,11.43
2023-04-24T00:45:45.904Z,11.42
2023-04-24T00:49:24.223Z,11.40
2023-04-24T00:51:57.358Z,11.38
2023-04-24T00:55:18.380Z,11.33
2023-04-24T00:58:16.798Z,11.30
2023-04-24T01:00:54.196Z,11.29
2023-04-24T01:03:46.663Z,11.27
2023-04-24T01:06:29.614Z,11.26
2023-04-24T01:09:09.167Z,11.23
2023-04-24T01:11:48.326Z,11.21
2023-04-24T01:14:37.296Z,11.19
2023-04-24T01:17:40.601Z,11.16
2023-04-24T01:20:17.260Z,11.13
2023-04-24T01:23:12.813Z,11.09
2023-04-24T01:25:49.917Z,11.08
2023-04-24T01:28:37.167Z,11.07
2023-04-24T01:31:30.566Z,11.09
2023-04-24T01:34:04.344Z,11.11
2023-04-24T01:36:49.699Z,11.12
2023-04-24T01:39:22.552Z,11.10
2023-04-24T01:42:21.494Z,11.06
2023-04-24T01:45:23.992Z,11.04
2023-04-24T01:48:44.524Z,10.98
2023-04-24T01:51:22.390Z,10.94
2023-04-24T01:54:18.843Z,10.85
2023-04-24T01:57:55.222Z,10.78
2023-04-24T02:00:55.912Z,10.70
2023-04-24T02:03:33.576Z,10.63
2023-04-24T02:06:05.960Z,10.60
2023-04-24T02:08:44.297Z,10.57
2023-04-24T02:11:36.487Z,10.56
2023-04-24T02:14:13.988Z,10.53
2023-04-24T02:17:09.075Z,10.51
2023-04-24T02:19:45.468Z,10.49
2023-04-24T02:22:26.473Z,10.47
2023-04-24T02:24:55.393Z,10.42
2023-04-24T02:27:50.306Z,10.38
2023-04-24T02:30:34.208Z,10.36
2023-04-24T02:33:23.930Z,10.33
2023-04-24T02:36:15.459Z,10.33
2023-04-24T02:39:12.363Z,10.33
2023-04-24T02:41:49.739Z,10.34
2023-04-24T02:44:48.730Z,10.32
2023-04-24T02:47:25.464Z,10.33
2023-04-24T02:49:56.663Z,10.33
2023-04-24T02:52:40.679Z,10.35
2023-04-24T02:55:12.418Z,10.36
2023-04-24T02:58:14.004Z,10.36
2023-04-24T03:01:11.598Z,10.38
2023-04-24T03:04:03.295Z,10.40
2023-04-24T03:06:49.024Z,10.40
2023-04-24T03:09:47.722Z,10.40
2023-04-24T03:12:29.872Z,10.41
2023-04-24T03:15:32.503Z,10.43
2023-04-24T03:18:03.258Z,10.47
2023-04-24T03:21:24.955Z,10.48
2023-04-24T03:23:57.730Z,10.53
2023-04-24T03:26:32.071Z,10.52
2023-04-24T03:29:55.835Z,10.53
2023-04-24T03:33:00.668Z,10.52
2023-04-24T03:36:06.150Z,10.54
2023-04-24T03:38:54.745Z,10.58
2023-04-24T03:42:02.712Z,10.61
2023-04-24T03:45:40.464Z,10.66
2023-04-24T03:48:20.432Z,10.72
2023-04-24T03:51:01.569Z,10.74
2023-04-24T03:53:43.167Z,10.77
2023-04-24T03:56:16.910Z,10.79
2023-04-24T03:59:00.506Z,10.82
2023-04-24T04:02:26.374Z,10.88
2023-04-24T04:05:08.262Z,10.98
2023-04-24T04:08:04.999Z,11.02
2023-04-24T04:11:49.277Z,11.11
2023-04-24T04:15:01.608Z,11.21
2023-04-24T04:18:31.079Z,11.23
2023-04-24T04:24:38.759Z,11.31
2023-04-24T04:27:26.518Z,11.32
2023-04-24T04:30:55.894Z,11.38
2023-04-24T04:34:55.302Z,11.43
2023-04-24T04:37:39.502Z,11.45
2023-04-24T04:40:57.502Z,11.61
2023-04-24T04:43:30.911Z,11.70
2023-04-24T04:47:26.156Z,11.76
2023-04-24T04:50:17.351Z,11.82
2023-04-24T04:53:18.839Z,11.88
2023-04-24T05:04:21.881Z,12.19
2023-04-24T05:07:16.182Z,12.28
2023-04-24T05:10:11.665Z,12.39
2023-04-24T05:13:36.216Z,12.46
2023-04-24T05:20:34.135Z,12.68
2023-04-24T05:23:37.550Z,12.79
2023-04-24T05:27:02.467Z,12.89
2023-04-24T05:38:28.477Z,13.26
2023-04-24T05:45:09.855Z,13.62
2023-04-24T09:46:00.135Z,18.44
2023-04-24T09:48:48.388Z,18.39
2023-04-24T09:51:56.034Z,18.25
2023-04-24T09:58:51.227Z,17.91
2023-04-24T10:02:47.241Z,17.79
2023-04-24T10:05:51.460Z,17.71
2023-04-24T10:13:04.222Z,17.69
2023-04-24T10:16:35.895Z,17.66
2023-04-24T10:24:11.264Z,17.48
2023-04-24T10:28:19.582Z,17.39
2023-04-24T10:31:58.266Z,17.37
2023-04-24T10:35:40.462Z,17.40
2023-04-24T10:39:46.874Z,17.43
2023-04-24T10:42:55.754Z,17.52
2023-04-24T10:45:42.395Z,17.56
2023-04-24T10:49:11.121Z,17.81
2023-04-24T10:52:31.187Z,18.01
2023-04-24T11:00:08.538Z,18.54
2023-04-24T11:12:26.173Z,19.65
2023-04-24T11:16:16.971Z,19.86
2023-04-24T11:25:04.124Z,20.13
2023-04-24T11:28:15.486Z,20.22
2023-04-24T11:31:38.734Z,20.24
2023-04-24T11:34:39.187Z,20.34
2023-04-24T11:37:13.790Z,20.48
2023-04-24T11:44:20.350Z,20.65
2023-04-24T11:47:18.039Z,20.61
2023-04-24T11:53:35.508Z,20.69
2023-04-24T11:56:21.273Z,20.77
2023-04-24T11:59:13.446Z,20.82
2023-04-24T12:02:47.798Z,20.84
2023-04-24T12:05:52.966Z,20.79
2023-04-24T12:09:18.596Z,20.71
2023-04-24T12:20:42.477Z,20.67
2023-04-24T12:33:40.081Z,20.60
2023-04-24T12:36:46.895Z,20.57
2023-04-24T12:40:03.688Z,20.55
2023-04-24T12:43:19.059Z,20.53
2023-04-24T12:47:15.906Z,20.49
2023-04-24T12:51:13.630Z,20.36
2023-04-24T12:58:18.070Z,20.42
2023-04-24T13:09:42.426Z,20.41
2023-04-24T13:13:08.119Z,20.36
2023-04-24T13:16:22.759Z,20.38
2023-04-24T13:19:28.701Z,20.43
2023-04-24T13:22:21.634Z,20.44
2023-04-24T13:42:43.120Z,20.77
2023-04-24T13:50:33.008Z,20.27
2023-04-24T13:54:01.441Z,20.10
2023-04-24T13:57:36.560Z,20.06
2023-04-24T14:01:16.766Z,20.15
2023-04-24T14:04:30.603Z,20.53
2023-04-24T14:21:07.086Z,21.76
2023-04-24T14:28:51.146Z,21.92
2023-04-24T14:32:32.354Z,21.86
2023-04-24T14:51:53.428Z,20.28
2023-04-24T14:55:30.074Z,20.36
2023-04-24T14:59:01.219Z,20.74
2023-04-24T15:02:15.553Z,20.97
2023-04-24T15:05:03.320Z,21.23
2023-04-24T15:12:52.668Z,21.49
2023-04-24T15:19:57.811Z,21.04
2023-04-24T15:48:00.616Z,18.01
2023-04-24T16:04:06.915Z,17.10
2023-04-24T16:11:57.687Z,16.86
2023-04-24T16:19:29.554Z,16.67
2023-04-24T16:30:58.563Z,16.47
2023-04-24T16:33:50.145Z,16.42
2023-04-24T16:36:35.170Z,16.37
2023-04-24T16:39:31.009Z,16.34
2023-04-24T16:42:41.608Z,16.33
2023-04-24T16:48:57.538Z,16.22
2023-04-24T16:51:55.012Z,16.20
2023-04-24T16:54:57.799Z,16.15
2023-04-24T16:58:05.709Z,16.13
2023-04-24T17:01:53.445Z,16.11
2023-04-24T17:09:07.490Z,16.06
2023-04-24T17:13:00.632Z,16.03
2023-04-24T17:24:48.230Z,15.87
2023-04-24T17:27:41.036Z,15.82
2023-04-24T17:30:30.882Z,15.78
2023-04-24T17:38:05.616Z,15.69
2023-04-24T17:46:46.496Z,15.53
2023-04-24T17:50:02.886Z,15.44
2023-04-24T17:54:01.851Z,15.35
2023-04-24T18:05:06.456Z,15.11
2023-04-24T18:08:03.529Z,15.02
2023-04-24T18:15:38.983Z,14.87
2023-04-24T18:18:31.552Z,14.79
2023-04-24T18:25:01.183Z,14.66
2023-04-24T18:27:49.138Z,14.59
2023-04-24T18:30:37.266Z,14.57
2023-04-24T18:33:31.577Z,14.53
2023-04-24T18:46:08.642Z,14.39
2023-04-24T18:54:58.132Z,14.27
2023-04-24T19:07:07.389Z,14.08
2023-04-24T19:14:44.406Z,13.91
2023-04-24T19:17:57.132Z,13.86
2023-04-24T19:21:12.754Z,13.85
2023-04-24T19:24:37.841Z,13.82
2023-04-24T19:31:19.535Z,13.79
2023-04-24T19:34:16.754Z,13.72
2023-04-24T19:37:22.429Z,13.68
2023-04-24T19:40:36.102Z,13.64
2023-04-24T19:44:26.052Z,13.62
2023-04-24T19:47:09.887Z,13.60
2023-04-24T19:50:44.520Z,13.58
2023-04-24T20:07:29.163Z,13.49
2023-04-24T20:10:36.369Z,13.46
2023-04-24T20:14:44.246Z,13.44
2023-04-24T20:26:17.127Z,13.37
2023-04-24T20:33:40.010Z,13.41
2023-04-24T20:36:37.855Z,13.44
2023-04-24T20:39:34.685Z,13.47
2023-04-24T20:47:50.808Z,13.50
2023-04-24T20:50:42.154Z,13.46
2023-04-24T20:53:36.711Z,13.43
2023-04-24T21:02:17.436Z,13.37
2023-04-24T21:04:55.915Z,13.37
2023-04-24T21:07:53.432Z,13.28
2023-04-24T21:10:52.666Z,13.23
2023-04-24T21:13:33.557Z,13.15
2023-04-24T21:16:03.914Z,13.13
2023-04-24T21:23:05.180Z,13.08
2023-04-24T21:26:24.669Z,13.00
2023-04-24T21:28:59.796Z,12.95
2023-04-24T21:31:54.526Z,12.92
2023-04-24T21:34:55.437Z,12.93
2023-04-24T21:37:37.419Z,12.91
2023-04-24T21:41:18.368Z,12.83
2023-04-24T21:44:00.540Z,12.76
2023-04-24T21:46:50.101Z,12.70
2023-04-24T21:49:52.158Z,12.70
2023-04-24T21:52:49.192Z,12.70
2023-04-24T21:55:56.303Z,12.68
2023-04-24T22:03:45.111Z,12.56
2023-04-24T22:06:41.454Z,12.70
2023-04-24T22:09:21.043Z,12.73
2023-04-24T22:16:53.824Z,12.65
2023-04-24T22:20:02.393Z,12.61
2023-04-24T22:22:41.858Z,12.61
2023-04-24T22:25:18.765Z,12.61
2023-04-24T22:28:16.780Z,12.62
2023-04-24T22:31:17.847Z,12.61
2023-04-24T22:34:19.628Z,12.50
2023-04-24T22:36:59.151Z,12.55
2023-04-24T22:39:41.360Z,12.52
2023-04-24T22:42:36.534Z,12.50
2023-04-24T22:45:15.618Z,12.47
2023-04-24T22:47:48.980Z,12.44
2023-04-24T22:51:03.744Z,12.40
2023-04-24T22:53:43.464Z,12.37
2023-04-24T22:56:41.244Z,12.33
2023-04-24T22:59:48.165Z,12.29
2023-04-24T23:06:01.117Z,12.20
2023-04-24T23:08:36.927Z,12.15
2023-04-24T23:11:39.370Z,12.11
2023-04-24T23:14:48.406Z,12.09
2023-04-24T23:17:31.213Z,12.07
2023-04-24T23:20:06.981Z,12.04
2023-04-24T23:25:27.827Z,12.02
2023-04-24T23:27:58.587Z,11.98
2023-04-24T23:30:38.301Z,11.96
2023-04-24T23:34:02.386Z,11.95
2023-04-24T23:36:43.134Z,11.97
2023-04-24T23:39:13.829Z,11.96
2023-04-24T23:42:03.996Z,11.96
2023-04-24T23:44:41.009Z,11.95
2023-04-24T23:47:51.491Z,11.94
2023-04-24T23:50:54.494Z,11.92
2023-04-24T23:53:51.134Z,11.93
2023-04-24T23:56:43.061Z,11.90
2023-04-24T23:59:32.866Z,11.86
